sensor_id;sensor_type;location;lat;lon;timestamp;pressure;altitude;pressure_sealevel;temperature;humidity
54042;BME280;41156;51.508;5.406;2023-04-06T00:00:39;101691.84;;;3.15;72.76
54042;BME280;41156;51.508;5.406;2023-04-06T00:03:39;101682.00;;;3.15;72.54
54042;BME280;41156;51.508;5.406;2023-04-06T00:06:39;101680.88;;;3.18;71.97
54042;BME280;41156;51.508;5.406;2023-04-06T00:09:40;101685.91;;;3.21;71.78
54042;BME280;41156;51.508;5.406;2023-04-06T00:12:40;101675.22;;;3.21;71.83
54042;BME280;41156;51.508;5.406;2023-04-06T00:15:40;101677.06;;;3.21;71.50
54042;BME280;41156;51.508;5.406;2023-04-06T00:18:41;101675.22;;;3.21;71.92
54042;BME280;41156;51.508;5.406;2023-04-06T00:21:41;101668.22;;;3.20;71.57
54042;BME280;41156;51.508;5.406;2023-04-06T00:24:41;101667.34;;;3.20;71.85
54042;BME280;41156;51.508;5.406;2023-04-06T00:27:42;101663.84;;;3.19;71.94
54042;BME280;41156;51.508;5.406;2023-04-06T00:30:42;101657.69;;;3.19;71.10
54042;BME280;41156;51.508;5.406;2023-04-06T00:33:42;101661.19;;;3.19;71.62
54042;BME280;41156;51.508;5.406;2023-04-06T00:36:43;101651.31;;;3.20;71.06
54042;BME280;41156;51.508;5.406;2023-04-06T00:39:43;101661.19;;;3.19;71.41
54042;BME280;41156;51.508;5.406;2023-04-06T00:42:43;101647.97;;;3.18;71.27
54042;BME280;41156;51.508;5.406;2023-04-06T00:45:43;101649.81;;;3.17;71.67
54042;BME280;41156;51.508;5.406;2023-04-06T00:48:44;101644.91;;;3.12;71.51
54042;BME280;41156;51.508;5.406;2023-04-06T00:51:44;101642.38;;;3.11;71.65
54042;BME280;41156;51.508;5.406;2023-04-06T00:54:45;101635.66;;;3.07;71.76
54042;BME280;41156;51.508;5.406;2023-04-06T00:57:45;101635.09;;;3.03;71.96
54042;BME280;41156;51.508;5.406;2023-04-06T01:00:47;101631.88;;;3.00;72.15
54042;BME280;41156;51.508;5.406;2023-04-06T01:03:48;101628.66;;;2.96;72.47
54042;BME280;41156;51.508;5.406;2023-04-06T01:06:50;101631.19;;;2.97;71.72
54042;BME280;41156;51.508;5.406;2023-04-06T01:09:53;101625.97;;;2.96;72.48
54042;BME280;41156;51.508;5.406;2023-04-06T01:12:53;101620.63;;;2.96;72.20
54042;BME280;41156;51.508;5.406;2023-04-06T01:15:54;101617.28;;;2.94;72.33
54042;BME280;41156;51.508;5.406;2023-04-06T01:18:54;101612.91;;;2.93;72.85
54042;BME280;41156;51.508;5.406;2023-04-06T01:21:54;101608.72;;;2.90;72.71
54042;BME280;41156;51.508;5.406;2023-04-06T01:24:55;101608.88;;;2.89;72.66
54042;BME280;41156;51.508;5.406;2023-04-06T01:27:56;101613.53;;;2.87;73.14
54042;BME280;41156;51.508;5.406;2023-04-06T01:30:56;101610.13;;;2.85;73.90
54042;BME280;41156;51.508;5.406;2023-04-06T01:33:57;101604.97;;;2.83;74.36
54042;BME280;41156;51.508;5.406;2023-04-06T01:36:57;101602.28;;;2.83;73.87
54042;BME280;41156;51.508;5.406;2023-04-06T01:39:57;101603.97;;;2.84;74.84
54042;BME280;41156;51.508;5.406;2023-04-06T01:42:57;101600.31;;;2.85;74.80
54042;BME280;41156;51.508;5.406;2023-04-06T01:45:58;101591.31;;;2.86;74.95
54042;BME280;41156;51.508;5.406;2023-04-06T01:48:58;101585.66;;;2.89;74.63
54042;BME280;41156;51.508;5.406;2023-04-06T01:51:58;101590.44;;;2.95;74.86
54042;BME280;41156;51.508;5.406;2023-04-06T01:54:59;101588.03;;;3.02;74.26
54042;BME280;41156;51.508;5.406;2023-04-06T01:58:00;101586.97;;;3.13;73.95
54042;BME280;41156;51.508;5.406;2023-04-06T02:01:00;101573.72;;;3.21;73.83
54042;BME280;41156;51.508;5.406;2023-04-06T02:04:00;101574.84;;;3.28;73.76
54042;BME280;41156;51.508;5.406;2023-04-06T02:07:01;101574.22;;;3.34;73.56
54042;BME280;41156;51.508;5.406;2023-04-06T02:10:02;101569.09;;;3.41;74.09
54042;BME280;41156;51.508;5.406;2023-04-06T02:13:02;101568.53;;;3.47;73.37
54042;BME280;41156;51.508;5.406;2023-04-06T02:16:03;101562.59;;;3.54;73.10
54042;BME280;41156;51.508;5.406;2023-04-06T02:19:03;101570.84;;;3.60;73.14
54042;BME280;41156;51.508;5.406;2023-04-06T02:22:03;101558.00;;;3.64;73.79
54042;BME280;41156;51.508;5.406;2023-04-06T02:25:04;101563.59;;;3.70;72.70
54042;BME280;41156;51.508;5.406;2023-04-06T02:28:04;101555.13;;;3.75;73.37
54042;BME280;41156;51.508;5.406;2023-04-06T02:31:05;101554.81;;;3.78;72.81
54042;BME280;41156;51.508;5.406;2023-04-06T02:34:05;101555.34;;;3.82;73.10
54042;BME280;41156;51.508;5.406;2023-04-06T02:37:07;101549.69;;;3.85;72.53
54042;BME280;41156;51.508;5.406;2023-04-06T02:40:07;101541.53;;;3.86;72.85
54042;BME280;41156;51.508;5.406;2023-04-06T02:43:08;101537.69;;;3.89;72.77
54042;BME280;41156;51.508;5.406;2023-04-06T02:46:08;101540.06;;;3.92;72.90
54042;BME280;41156;51.508;5.406;2023-04-06T02:49:08;101536.25;;;3.95;72.55
54042;BME280;41156;51.508;5.406;2023-04-06T02:52:08;101527.72;;;3.99;72.52
54042;BME280;41156;51.508;5.406;2023-04-06T02:55:09;101522.75;;;4.04;72.24
54042;BME280;41156;51.508;5.406;2023-04-06T02:58:09;101519.94;;;4.06;71.80
54042;BME280;41156;51.508;5.406;2023-04-06T03:01:09;101523.63;;;4.05;72.46
54042;BME280;41156;51.508;5.406;2023-04-06T03:04:10;101519.09;;;4.05;72.77
54042;BME280;41156;51.508;5.406;2023-04-06T03:07:11;101508.09;;;4.08;72.01
54042;BME280;41156;51.508;5.406;2023-04-06T03:10:11;101519.31;;;4.12;72.83
54042;BME280;41156;51.508;5.406;2023-04-06T03:13:12;101517.16;;;4.16;71.96
54042;BME280;41156;51.508;5.406;2023-04-06T03:16:12;101515.16;;;4.18;71.50
54042;BME280;41156;51.508;5.406;2023-04-06T03:19:12;101510.53;;;4.20;71.46
54042;BME280;41156;51.508;5.406;2023-04-06T03:22:13;101505.84;;;4.22;71.43
54042;BME280;41156;51.508;5.406;2023-04-06T03:25:13;101500.19;;;4.25;71.78
54042;BME280;41156;51.508;5.406;2023-04-06T03:28:14;101499.19;;;4.26;71.63
54042;BME280;41156;51.508;5.406;2023-04-06T03:31:14;101500.72;;;4.29;71.32
54042;BME280;41156;51.508;5.406;2023-04-06T03:34:15;101495.50;;;4.27;71.58
54042;BME280;41156;51.508;5.406;2023-04-06T03:37:15;101498.34;;;4.25;71.96
54042;BME280;41156;51.508;5.406;2023-04-06T03:40:15;101497.50;;;4.25;71.80
54042;BME280;41156;51.508;5.406;2023-04-06T03:43:16;101492.31;;;4.23;71.41
54042;BME280;41156;51.508;5.406;2023-04-06T03:46:16;101491.66;;;4.21;71.52
54042;BME280;41156;51.508;5.406;2023-04-06T03:49:16;101497.97;;;4.20;72.03
54042;BME280;41156;51.508;5.406;2023-04-06T03:52:17;101497.16;;;4.20;71.62
54042;BME280;41156;51.508;5.406;2023-04-06T03:55:18;101497.31;;;4.18;71.82
54042;BME280;41156;51.508;5.406;2023-04-06T03:58:18;101493.09;;;4.16;72.46
54042;BME280;41156;51.508;5.406;2023-04-06T04:01:18;101495.09;;;4.14;71.85
54042;BME280;41156;51.508;5.406;2023-04-06T04:04:19;101502.44;;;4.12;71.91
54042;BME280;41156;51.508;5.406;2023-04-06T04:07:19;101494.56;;;4.10;72.27
54042;BME280;41156;51.508;5.406;2023-04-06T04:10:20;101498.69;;;4.04;72.07
54042;BME280;41156;51.508;5.406;2023-04-06T04:13:20;101496.00;;;4.04;72.42
54042;BME280;41156;51.508;5.406;2023-04-06T04:16:20;101491.84;;;4.02;72.22
54042;BME280;41156;51.508;5.406;2023-04-06T04:19:20;101491.84;;;4.02;72.30
54042;BME280;41156;51.508;5.406;2023-04-06T04:22:21;101493.69;;;4.01;72.23
54042;BME280;41156;51.508;5.406;2023-04-06T04:25:22;101492.00;;;4.00;72.41
54042;BME280;41156;51.508;5.406;2023-04-06T04:28:23;101493.34;;;4.04;73.13
54042;BME280;41156;51.508;5.406;2023-04-06T04:31:23;101491.69;;;4.03;72.25
54042;BME280;41156;51.508;5.406;2023-04-06T04:34:23;101489.00;;;4.03;72.31
54042;BME280;41156;51.508;5.406;2023-04-06T04:37:25;101490.66;;;4.04;72.07
54042;BME280;41156;51.508;5.406;2023-04-06T04:40:25;101487.53;;;4.09;71.92
54042;BME280;41156;51.508;5.406;2023-04-06T04:43:25;101483.00;;;4.10;72.88
54042;BME280;41156;51.508;5.406;2023-04-06T04:46:26;101479.72;;;4.16;72.11
54042;BME280;41156;51.508;5.406;2023-04-06T04:49:26;101475.91;;;4.18;72.04
54042;BME280;41156;51.508;5.406;2023-04-06T04:52:26;101472.06;;;4.21;72.03
54042;BME280;41156;51.508;5.406;2023-04-06T04:55:28;101474.28;;;4.25;72.25
54042;BME280;41156;51.508;5.406;2023-04-06T04:58:29;101477.47;;;4.29;72.55
54042;BME280;41156;51.508;5.406;2023-04-06T05:01:30;101470.81;;;4.33;72.79
54042;BME280;41156;51.508;5.406;2023-04-06T05:04:30;101472.16;;;4.37;71.82
54042;BME280;41156;51.508;5.406;2023-04-06T05:07:31;101473.53;;;4.41;71.83
54042;BME280;41156;51.508;5.406;2023-04-06T05:10:31;101472.53;;;4.42;72.30
54042;BME280;41156;51.508;5.406;2023-04-06T05:13:31;101474.88;;;4.45;72.15
54042;BME280;41156;51.508;5.406;2023-04-06T05:16:33;101467.69;;;4.46;71.57
54042;BME280;41156;51.508;5.406;2023-04-06T05:19:34;101474.72;;;4.47;72.53
54042;BME280;41156;51.508;5.406;2023-04-06T05:22:34;101467.38;;;4.49;71.96
54042;BME280;41156;51.508;5.406;2023-04-06T05:25:35;101474.09;;;4.53;72.06
54042;BME280;41156;51.508;5.406;2023-04-06T05:28:35;101479.97;;;4.57;71.76
54042;BME280;41156;51.508;5.406;2023-04-06T05:31:36;101475.94;;;4.61;71.96
54042;BME280;41156;51.508;5.406;2023-04-06T05:34:36;101472.81;;;4.66;71.62
54042;BME280;41156;51.508;5.406;2023-04-06T05:37:37;101474.19;;;4.70;71.29
54042;BME280;41156;51.508;5.406;2023-04-06T05:40:38;101480.88;;;4.74;71.34
54042;BME280;41156;51.508;5.406;2023-04-06T05:43:40;101473.50;;;4.76;71.09
54042;BME280;41156;51.508;5.406;2023-04-06T05:46:41;101475.56;;;4.82;70.75
54042;BME280;41156;51.508;5.406;2023-04-06T05:49:44;101467.03;;;4.87;70.75
54042;BME280;41156;51.508;5.406;2023-04-06T05:52:44;101478.09;;;4.92;70.55
54042;BME280;41156;51.508;5.406;2023-04-06T05:55:46;101468.41;;;4.99;70.03
54042;BME280;41156;51.508;5.406;2023-04-06T05:58:47;101467.09;;;5.03;70.70
54042;BME280;41156;51.508;5.406;2023-04-06T06:01:47;101471.78;;;5.09;70.14
54042;BME280;41156;51.508;5.406;2023-04-06T06:04:48;101464.78;;;5.16;69.87
54042;BME280;41156;51.508;5.406;2023-04-06T06:07:48;101470.34;;;5.23;69.89
54042;BME280;41156;51.508;5.406;2023-04-06T06:10:48;101485.72;;;5.29;69.23
54042;BME280;41156;51.508;5.406;2023-04-06T06:13:49;101485.09;;;5.35;68.92
54042;BME280;41156;51.508;5.406;2023-04-06T06:16:50;101482.41;;;5.44;68.79
54042;BME280;41156;51.508;5.406;2023-04-06T06:19:50;101466.50;;;5.50;68.68
54042;BME280;41156;51.508;5.406;2023-04-06T06:22:51;101481.59;;;5.60;68.31
54042;BME280;41156;51.508;5.406;2023-04-06T06:25:54;101483.59;;;5.66;68.01
54042;BME280;41156;51.508;5.406;2023-04-06T06:28:56;101478.25;;;5.74;67.50
54042;BME280;41156;51.508;5.406;2023-04-06T06:31:57;101479.59;;;5.78;68.24
54042;BME280;41156;51.508;5.406;2023-04-06T06:34:57;101480.44;;;5.79;67.94
54042;BME280;41156;51.508;5.406;2023-04-06T06:37:57;101478.09;;;5.84;68.15
54042;BME280;41156;51.508;5.406;2023-04-06T06:40:58;101474.25;;;5.86;68.03
54042;BME280;41156;51.508;5.406;2023-04-06T06:43:58;101469.53;;;5.88;67.84
54042;BME280;41156;51.508;5.406;2023-04-06T06:46:58;101469.53;;;5.88;68.24
54042;BME280;41156;51.508;5.406;2023-04-06T06:49:59;101473.72;;;5.91;67.73
54042;BME280;41156;51.508;5.406;2023-04-06T06:52:59;101466.53;;;5.91;67.95
54042;BME280;41156;51.508;5.406;2023-04-06T06:55:59;101465.50;;;5.92;67.58
54042;BME280;41156;51.508;5.406;2023-04-06T06:59:00;101471.56;;;5.95;67.52
54042;BME280;41156;51.508;5.406;2023-04-06T07:02:00;101475.25;;;6.02;67.90
54042;BME280;41156;51.508;5.406;2023-04-06T07:05:01;101470.22;;;6.07;67.60
54042;BME280;41156;51.508;5.406;2023-04-06T07:08:01;101474.06;;;6.13;67.55
54042;BME280;41156;51.508;5.406;2023-04-06T07:11:02;101462.66;;;6.19;67.01
54042;BME280;41156;51.508;5.406;2023-04-06T07:14:02;101463.63;;;6.26;67.31
54042;BME280;41156;51.508;5.406;2023-04-06T07:17:02;101465.81;;;6.30;67.37
54042;BME280;41156;51.508;5.406;2023-04-06T07:20:03;101463.63;;;6.34;67.18
54042;BME280;41156;51.508;5.406;2023-04-06T07:23:03;101470.16;;;6.40;66.54
54042;BME280;41156;51.508;5.406;2023-04-06T07:26:04;101460.56;;;6.45;66.92
54042;BME280;41156;51.508;5.406;2023-04-06T07:29:04;101459.03;;;6.51;67.23
54042;BME280;41156;51.508;5.406;2023-04-06T07:32:05;101463.06;;;6.55;66.36
54042;BME280;41156;51.508;5.406;2023-04-06T07:35:05;101458.66;;;6.62;66.68
54042;BME280;41156;51.508;5.406;2023-04-06T07:38:05;101455.94;;;6.71;66.88
54042;BME280;41156;51.508;5.406;2023-04-06T07:41:06;101461.94;;;6.81;66.88
54042;BME280;41156;51.508;5.406;2023-04-06T07:44:06;101456.53;;;6.89;66.51
54042;BME280;41156;51.508;5.406;2023-04-06T07:47:06;101458.69;;;6.94;65.95
54042;BME280;41156;51.508;5.406;2023-04-06T07:50:07;101455.50;;;6.98;66.74
54042;BME280;41156;51.508;5.406;2023-04-06T07:53:08;101453.75;;;7.06;66.13
54042;BME280;41156;51.508;5.406;2023-04-06T07:56:09;101453.06;;;7.12;66.31
54042;BME280;41156;51.508;5.406;2023-04-06T07:59:09;101458.38;;;7.20;66.29
54042;BME280;41156;51.508;5.406;2023-04-06T08:02:11;101455.81;;;7.27;66.42
54042;BME280;41156;51.508;5.406;2023-04-06T08:05:11;101458.00;;;7.31;66.16
54042;BME280;41156;51.508;5.406;2023-04-06T08:08:12;101462.28;;;7.40;66.28
54042;BME280;41156;51.508;5.406;2023-04-06T08:11:12;101457.88;;;7.48;65.44
54042;BME280;41156;51.508;5.406;2023-04-06T08:14:12;101464.38;;;7.53;65.79
54042;BME280;41156;51.508;5.406;2023-04-06T08:17:12;101455.44;;;7.61;65.92
54042;BME280;41156;51.508;5.406;2023-04-06T08:20:13;101459.53;;;7.72;66.12
54042;BME280;41156;51.508;5.406;2023-04-06T08:23:13;101459.94;;;7.84;66.02
54042;BME280;41156;51.508;5.406;2023-04-06T08:26:13;101458.66;;;7.94;65.65
54042;BME280;41156;51.508;5.406;2023-04-06T08:29:14;101460.72;;;8.07;65.87
54042;BME280;41156;51.508;5.406;2023-04-06T08:32:14;101460.00;;;8.13;64.97
54042;BME280;41156;51.508;5.406;2023-04-06T08:35:14;101471.50;;;8.22;65.60
54042;BME280;41156;51.508;5.406;2023-04-06T08:38:14;101469.94;;;8.28;65.34
54042;BME280;41156;51.508;5.406;2023-04-06T08:41:15;101462.50;;;8.30;65.57
54042;BME280;41156;51.508;5.406;2023-04-06T08:44:17;101463.44;;;8.37;65.21
54042;BME280;41156;51.508;5.406;2023-04-06T08:47:19;101456.53;;;8.43;64.97
54042;BME280;41156;51.508;5.406;2023-04-06T08:50:19;101466.53;;;8.49;64.64
54042;BME280;41156;51.508;5.406;2023-04-06T08:53:20;101470.38;;;8.55;65.51
54042;BME280;41156;51.508;5.406;2023-04-06T08:56:22;101466.53;;;8.64;65.24
54042;BME280;41156;51.508;5.406;2023-04-06T08:59:24;101472.88;;;8.71;65.31
54042;BME280;41156;51.508;5.406;2023-04-06T09:02:25;101463.47;;;8.82;65.86
54042;BME280;41156;51.508;5.406;2023-04-06T09:05:26;101471.44;;;8.90;65.94
54042;BME280;41156;51.508;5.406;2023-04-06T09:08:26;101472.78;;;9.01;65.78
54042;BME280;41156;51.508;5.406;2023-04-06T09:11:26;101468.34;;;9.08;65.45
54042;BME280;41156;51.508;5.406;2023-04-06T09:14:37;101476.41;;;9.23;65.65
54042;BME280;41156;51.508;5.406;2023-04-06T09:17:37;101481.28;;;9.34;66.23
54042;BME280;41156;51.508;5.406;2023-04-06T09:20:38;101474.72;;;9.43;66.36
54042;BME280;41156;51.508;5.406;2023-04-06T09:23:38;101486.59;;;9.49;67.13
54042;BME280;41156;51.508;5.406;2023-04-06T09:26:46;101483.34;;;9.54;69.62
54042;BME280;41156;51.508;5.406;2023-04-06T09:29:47;101475.69;;;9.57;68.25
54042;BME280;41156;51.508;5.406;2023-04-06T09:32:52;101473.25;;;9.62;69.57
54042;BME280;41156;51.508;5.406;2023-04-06T09:35:52;101473.72;;;9.66;69.42
54042;BME280;41156;51.508;5.406;2023-04-06T09:38:57;101479.00;;;9.74;70.36
54042;BME280;41156;51.508;5.406;2023-04-06T09:41:58;101479.44;;;9.78;69.46
54042;BME280;41156;51.508;5.406;2023-04-06T09:44:58;101473.47;;;9.82;70.49
54042;BME280;41156;51.508;5.406;2023-04-06T09:47:59;101475.78;;;9.92;70.26
54042;BME280;41156;51.508;5.406;2023-04-06T09:51:03;101472.72;;;9.95;70.47
54042;BME280;41156;51.508;5.406;2023-04-06T09:54:06;101470.41;;;9.92;70.85
54042;BME280;41156;51.508;5.406;2023-04-06T09:57:25;101468.25;;;9.81;71.98
54042;BME280;41156;51.508;5.406;2023-04-06T10:00:26;101467.34;;;9.74;72.56
54042;BME280;41156;51.508;5.406;2023-04-06T10:06:40;101475.94;;;9.62;73.26
54042;BME280;41156;51.508;5.406;2023-04-06T10:09:44;101475.31;;;9.60;74.27
54042;BME280;41156;51.508;5.406;2023-04-06T10:12:47;101476.34;;;9.59;77.36
54042;BME280;41156;51.508;5.406;2023-04-06T10:15:48;101472.81;;;9.59;79.21
54042;BME280;41156;51.508;5.406;2023-04-06T10:18:53;101471.91;;;9.52;77.06
54042;BME280;41156;51.508;5.406;2023-04-06T10:21:56;101479.56;;;9.48;77.78
54042;BME280;41156;51.508;5.406;2023-04-06T10:24:58;101477.13;;;9.53;79.00
54042;BME280;41156;51.508;5.406;2023-04-06T10:28:06;101472.63;;;9.60;79.64
54042;BME280;41156;51.508;5.406;2023-04-06T10:31:07;101472.41;;;9.62;78.29
54042;BME280;41156;51.508;5.406;2023-04-06T10:34:07;101476.53;;;9.58;80.74
54042;BME280;41156;51.508;5.406;2023-04-06T10:37:14;101480.56;;;9.47;80.72
54042;BME280;41156;51.508;5.406;2023-04-06T10:40:25;101481.06;;;9.36;84.16
54042;BME280;41156;51.508;5.406;2023-04-06T10:43:25;101474.41;;;9.32;81.46
54042;BME280;41156;51.508;5.406;2023-04-06T10:46:30;101472.91;;;9.29;85.50
54042;BME280;41156;51.508;5.406;2023-04-06T10:49:30;101467.25;;;9.24;84.09
54042;BME280;41156;51.508;5.406;2023-04-06T10:52:30;101469.50;;;9.20;85.74
54042;BME280;41156;51.508;5.406;2023-04-06T10:55:31;101464.09;;;9.20;88.94
54042;BME280;41156;51.508;5.406;2023-04-06T10:58:32;101460.22;;;9.23;91.24
54042;BME280;41156;51.508;5.406;2023-04-06T11:01:32;101461.16;;;9.15;93.42
54042;BME280;41156;51.508;5.406;2023-04-06T11:04:32;101455.13;;;9.13;93.40
54042;BME280;41156;51.508;5.406;2023-04-06T11:07:32;101448.25;;;9.11;94.38
54042;BME280;41156;51.508;5.406;2023-04-06T11:10:33;101450.47;;;9.07;96.04
54042;BME280;41156;51.508;5.406;2023-04-06T11:13:40;101448.34;;;9.02;97.41
54042;BME280;41156;51.508;5.406;2023-04-06T11:16:41;101454.44;;;8.89;98.00
54042;BME280;41156;51.508;5.406;2023-04-06T11:19:42;101444.41;;;8.83;100.00
54042;BME280;41156;51.508;5.406;2023-04-06T11:22:51;101453.78;;;8.87;100.00
54042;BME280;41156;51.508;5.406;2023-04-06T11:25:52;101438.09;;;8.91;100.00
54042;BME280;41156;51.508;5.406;2023-04-06T11:28:52;101438.91;;;8.92;100.00
54042;BME280;41156;51.508;5.406;2023-04-06T11:32:01;101445.09;;;9.07;100.00
54042;BME280;41156;51.508;5.406;2023-04-06T11:35:01;101435.09;;;9.22;100.00
54042;BME280;41156;51.508;5.406;2023-04-06T11:38:03;101425.59;;;9.26;100.00
54042;BME280;41156;51.508;5.406;2023-04-06T11:41:04;101425.59;;;9.26;100.00
54042;BME280;41156;51.508;5.406;2023-04-06T11:44:05;101421.03;;;9.27;100.00
54042;BME280;41156;51.508;5.406;2023-04-06T11:47:08;101418.59;;;9.32;100.00
54042;BME280;41156;51.508;5.406;2023-04-06T11:50:10;101404.22;;;9.47;100.00
54042;BME280;41156;51.508;5.406;2023-04-06T11:53:11;101403.31;;;9.61;100.00
54042;BME280;41156;51.508;5.406;2023-04-06T11:56:11;101402.94;;;9.71;100.00
54042;BME280;41156;51.508;5.406;2023-04-06T11:59:22;101400.97;;;9.79;100.00
54042;BME280;41156;51.508;5.406;2023-04-06T12:02:22;101399.09;;;9.80;100.00
54042;BME280;41156;51.508;5.406;2023-04-06T12:05:23;101392.16;;;9.71;100.00
54042;BME280;41156;51.508;5.406;2023-04-06T12:08:25;101397.97;;;9.68;100.00
54042;BME280;41156;51.508;5.406;2023-04-06T12:11:26;101388.56;;;9.63;100.00
54042;BME280;41156;51.508;5.406;2023-04-06T12:14:26;101383.75;;;9.59;100.00
54042;BME280;41156;51.508;5.406;2023-04-06T12:17:26;101384.75;;;9.51;100.00
54042;BME280;41156;51.508;5.406;2023-04-06T12:20:27;101376.84;;;9.50;100.00
54042;BME280;41156;51.508;5.406;2023-04-06T12:23:27;101387.59;;;9.43;100.00
54042;BME280;41156;51.508;5.406;2023-04-06T12:26:28;101394.19;;;9.40;100.00
54042;BME280;41156;51.508;5.406;2023-04-06T12:29:28;101384.88;;;9.43;100.00
54042;BME280;41156;51.508;5.406;2023-04-06T12:32:28;101381.56;;;9.41;100.00
54042;BME280;41156;51.508;5.406;2023-04-06T12:35:33;101392.06;;;9.36;100.00
54042;BME280;41156;51.508;5.406;2023-04-06T12:38:33;101395.13;;;9.26;100.00
54042;BME280;41156;51.508;5.406;2023-04-06T12:41:33;101388.72;;;9.12;100.00
54042;BME280;41156;51.508;5.406;2023-04-06T12:44:34;101387.09;;;9.11;100.00
54042;BME280;41156;51.508;5.406;2023-04-06T12:47:35;101380.25;;;9.15;100.00
54042;BME280;41156;51.508;5.406;2023-04-06T12:50:36;101377.13;;;9.12;100.00
54042;BME280;41156;51.508;5.406;2023-04-06T12:53:36;101379.63;;;9.13;100.00
54042;BME280;41156;51.508;5.406;2023-04-06T12:56:36;101366.41;;;9.18;100.00
54042;BME280;41156;51.508;5.406;2023-04-06T12:59:37;101358.69;;;9.15;100.00
54042;BME280;41156;51.508;5.406;2023-04-06T13:02:37;101363.56;;;9.05;100.00
54042;BME280;41156;51.508;5.406;2023-04-06T13:05:49;101366.50;;;8.88;100.00
54042;BME280;41156;51.508;5.406;2023-04-06T13:08:49;101358.91;;;8.77;100.00
54042;BME280;41156;51.508;5.406;2023-04-06T13:11:50;101364.59;;;8.67;100.00
54042;BME280;41156;51.508;5.406;2023-04-06T13:14:50;101362.09;;;8.66;100.00
54042;BME280;41156;51.508;5.406;2023-04-06T13:17:52;101352.38;;;8.65;100.00
54042;BME280;41156;51.508;5.406;2023-04-06T13:20:52;101349.69;;;8.65;100.00
54042;BME280;41156;51.508;5.406;2023-04-06T13:23:53;101345.56;;;8.69;100.00
54042;BME280;41156;51.508;5.406;2023-04-06T13:26:53;101344.53;;;8.70;100.00
54042;BME280;41156;51.508;5.406;2023-04-06T13:29:55;101341.03;;;8.69;100.00
54042;BME280;41156;51.508;5.406;2023-04-06T13:32:56;101339.53;;;8.67;100.00
54042;BME280;41156;51.508;5.406;2023-04-06T13:35:57;101335.44;;;8.71;100.00
54042;BME280;41156;51.508;5.406;2023-04-06T13:38:58;101330.25;;;8.69;100.00
54042;BME280;41156;51.508;5.406;2023-04-06T13:41:58;101326.88;;;8.67;100.00
54042;BME280;41156;51.508;5.406;2023-04-06T13:44:59;101331.81;;;8.64;100.00
54042;BME280;41156;51.508;5.406;2023-04-06T13:47:59;101327.84;;;8.60;100.00
54042;BME280;41156;51.508;5.406;2023-04-06T13:51:08;101320.97;;;8.57;100.00
54042;BME280;41156;51.508;5.406;2023-04-06T13:54:08;101318.47;;;8.56;100.00
54042;BME280;41156;51.508;5.406;2023-04-06T13:57:09;101309.94;;;8.52;100.00
54042;BME280;41156;51.508;5.406;2023-04-06T14:00:09;101319.63;;;8.46;100.00
54042;BME280;41156;51.508;5.406;2023-04-06T14:03:11;101315.44;;;8.44;100.00
54042;BME280;41156;51.508;5.406;2023-04-06T14:06:12;101318.28;;;8.42;100.00
54042;BME280;41156;51.508;5.406;2023-04-06T14:09:13;101318.38;;;8.34;100.00
54042;BME280;41156;51.508;5.406;2023-04-06T14:12:13;101311.53;;;8.31;100.00
54042;BME280;41156;51.508;5.406;2023-04-06T14:15:13;101312.38;;;8.32;100.00
54042;BME280;41156;51.508;5.406;2023-04-06T14:18:13;101311.91;;;8.28;100.00
54042;BME280;41156;51.508;5.406;2023-04-06T14:21:14;101311.28;;;8.26;100.00
54042;BME280;41156;51.508;5.406;2023-04-06T14:24:15;101309.78;;;8.24;100.00
54042;BME280;41156;51.508;5.406;2023-04-06T14:27:16;101310.81;;;8.23;100.00
54042;BME280;41156;51.508;5.406;2023-04-06T14:30:16;101298.09;;;8.17;100.00
54042;BME280;41156;51.508;5.406;2023-04-06T14:33:17;101296.88;;;8.19;100.00
54042;BME280;41156;51.508;5.406;2023-04-06T14:36:17;101294.00;;;8.21;100.00
54042;BME280;41156;51.508;5.406;2023-04-06T14:39:17;101296.31;;;8.24;100.00
54042;BME280;41156;51.508;5.406;2023-04-06T14:42:18;101293.63;;;8.24;100.00
54042;BME280;41156;51.508;5.406;2023-04-06T14:45:18;101297.81;;;8.26;100.00
54042;BME280;41156;51.508;5.406;2023-04-06T14:48:21;101285.72;;;8.22;100.00
54042;BME280;41156;51.508;5.406;2023-04-06T14:51:24;101291.03;;;8.15;100.00
54042;BME280;41156;51.508;5.406;2023-04-06T14:54:24;101287.91;;;8.12;100.00
54042;BME280;41156;51.508;5.406;2023-04-06T14:57:25;101283.34;;;8.12;100.00
54042;BME280;41156;51.508;5.406;2023-04-06T15:00:25;101279.19;;;8.10;100.00
54042;BME280;41156;51.508;5.406;2023-04-06T15:03:26;101281.03;;;8.09;100.00
54042;BME280;41156;51.508;5.406;2023-04-06T15:06:27;101279.09;;;8.03;100.00
54042;BME280;41156;51.508;5.406;2023-04-06T15:09:27;101271.00;;;8.03;100.00
54042;BME280;41156;51.508;5.406;2023-04-06T15:12:27;101265.63;;;8.03;100.00
54042;BME280;41156;51.508;5.406;2023-04-06T15:15:29;101264.59;;;8.04;100.00
54042;BME280;41156;51.508;5.406;2023-04-06T15:18:30;101256.53;;;8.04;100.00
54042;BME280;41156;51.508;5.406;2023-04-06T15:21:30;101256.91;;;8.01;100.00
54042;BME280;41156;51.508;5.406;2023-04-06T15:24:31;101256.91;;;8.01;100.00
54042;BME280;41156;51.508;5.406;2023-04-06T15:27:31;101255.88;;;8.02;100.00
54042;BME280;41156;51.508;5.406;2023-04-06T15:30:31;101254.88;;;8.03;100.00
54042;BME280;41156;51.508;5.406;2023-04-06T15:33:32;101249.69;;;8.02;100.00
54042;BME280;41156;51.508;5.406;2023-04-06T15:36:32;101244.47;;;8.00;100.00
54042;BME280;41156;51.508;5.406;2023-04-06T15:39:32;101251.53;;;8.01;100.00
54042;BME280;41156;51.508;5.406;2023-04-06T15:42:33;101239.09;;;8.00;100.00
54042;BME280;41156;51.508;5.406;2023-04-06T15:45:33;101248.66;;;8.03;100.00
54042;BME280;41156;51.508;5.406;2023-04-06T15:48:34;101248.66;;;8.03;100.00
54042;BME280;41156;51.508;5.406;2023-04-06T15:51:35;101241.22;;;8.05;100.00
54042;BME280;41156;51.508;5.406;2023-04-06T15:54:35;101241.03;;;8.06;100.00
54042;BME280;41156;51.508;5.406;2023-04-06T15:57:40;101234.63;;;8.07;100.00